AirNav   Air Wisconsin Up To $57,000 Bonus
 
 1180 users online  

MN58 Sky Meadow Airport
Hastings, Minnesota, USA

GOING TO HASTINGS?


FAA INFORMATION EFFECTIVE 15 JULY 2021

Location

FAA Identifier: MN58
Lat/Long: 44-41-51.8820N 092-51-50.7390W
44-41.864700N 092-51.845650W
44.6977450,-92.8640942
(estimated)
Elevation: 820 ft. / 249.9 m (surveyed)
Variation: 03E (1985)
From city: 3 miles S of HASTINGS, MN
Time zone: UTC -5 (UTC -6 during Standard Time)
Zip code: 55033

Airport Operations

Airport use: Private use. Permission required prior to landing
Activation date: 12/1961
Control tower: no
ARTCC: MINNEAPOLIS CENTER
FSS: PRINCETON FLIGHT SERVICE STATION
Attendance: IREG
Wind indicator: yes
Segmented circle: no
Lights: FOR LIGHTS CALL 612-437-5769.

Airport Communications

WX AWOS-3 at SGS (12 nm NW): 119.425 (651-457-8120)
WX AWOS-3 at SYN (15 nm SW): 119.35 (507-664-3806)
WX AWOS-3 at LVN (16 nm W): 118.0 (952-469-5850)
WX ASOS at STP (16 nm NW): 118.35 (651-312-8888)
WX AWOS-3 at RGK (17 nm E): 119.25 (715-594-3763)
WX AWOS-3 at 21D (18 nm N): 120.075 (651-779-5949)
WX ASOS at MSP (19 nm NW): PHONE 612-713-4174

Nearby radio navigation aids

VOR radial/distance  VOR name  Freq  Var
FGTr068/14.1FARMINGTON VORTAC115.7006E
MSPr125/19.8MINNEAPOLIS VOR/DME115.3002E
FCMr106/25.8FLYING CLOUD VOR/DME117.7001E
GEPr135/34.5GOPHER VORTAC117.3006E
FOWr034/36.7HALFWAY VOR/DME111.2002E

 
NDB name  Hdg/Dist  Freq  Var  ID
REGUE301/11.027402ERG .-. --.

Airport Services

Airframe service: NONE
Powerplant service: NONE

Runway Information

Runway 18/36

Dimensions: 2300 x 125 ft. / 701 x 38 m
Surface: turf
Runway edge lights: low intensity
RUNWAY 18  RUNWAY 36
Traffic pattern: leftleft

Airport Ownership and Management from official FAA records

Ownership: Privately-owned
Owner: ROBERT W. WEBER
17238 KNOX PATH E
HASTINGS, MN 55033
Phone 651-437-5769
Manager: ROBERT W. WEBER
17238 KNOX PATH E
HASTINGS, MN 55033
Phone 651-437-5769

Airport Operational Statistics

Aircraft based on the field: 4
Single engine airplanes: 4
    

Additional Remarks

DO NOT CHART PER MINNESOTA DEPARTMENT OF TRANSPORTATION
FOR CD CTC MINNEAPOLIS ARTCC AT 651-463-5588.

Instrument Procedures

There are no published instrument procedures at MN58.

Some nearby airports with instrument procedures:

KSGS - South St Paul Municipal Airport-Richard E Fleming Field (12 nm NW)
KLVN - Airlake Airport (16 nm W)
KSTP - St Paul Downtown Airport Holman Field (16 nm NW)
KRGK - Red Wing Regional Airport (17 nm E)
21D - Lake Elmo Airport (18 nm N)
KMSP - Minneapolis-St Paul International/Wold-Chamberlain Airport (19 nm NW)
 
Loc | Ops | Rwys | IFR | FBO | Links
Com | Nav | Svcs | Stats | Notes
Area around MN58 (Sky Meadow Airport)
 
Road maps at: MapQuest Bing Google
 
Aerial photo
No photo
 
Sectional chart

 
Airport distance calculator
Flying to Sky Meadow Airport? Find the distance to fly.

From to MN58

Sunrise and sunset
Times for 28-Jul-2021
 Local
(UTC-5)
 Zulu
(UTC)
Morning civil twilight05:2010:20
Sunrise05:5410:54
Sunset20:4201:42
Evening civil twilight21:1602:16

Current date and time
Zulu (UTC)  28-Jul-2021 23:48:44
Local (UTC-5)  28-Jul-2021 18:48:44
 
METAR
KSYN 
15nm SW 
282335Z AUTO 18007KT 10SM CLR 30/25 A2985 RMK AO2 T02960250
KSGS 
15nm NW 
282335Z AUTO 16006KT 7SM CLR 31/23 A2983 RMK AO2 T03050226
KLVN 
16nm W 
282335Z AUTO 19005KT 10SM CLR 29/24 A2985 RMK AO2
KSTP 
16nm NW 
282253Z 17009KT 10SM CLR 32/23 A2985 RMK AO2 SLP100 T03170233
K21D 
18nm N 
282335Z AUTO 18008KT 10SM CLR 28/22 A2986 RMK AO2
KRGK 
19nm SE 
282335Z AUTO 18005KT 10SM CLR 29/21 A2986 RMK AO2
KMSP 
19nm NW 
282253Z 19010KT 10SM SCT180 OVC250 32/24 A2985 RMK AO2 SLP101 T03170244
KFCM 
27nm W 
282253Z 19010KT 10SM CLR 31/25 A2984 RMK AO2 SLP096 T03110250
TAF
KMSP 
19nm NW 
282051Z 2821/2924 19011G20KT P6SM SCT150 BKN250 FM290000 23011KT P6SM SCT080 BKN120 TEMPO 2900/2904 4SM -SHRA BR BKN050 FM291100 36007KT P6SM SCT150 FM291400 01008KT P6SM FEW200
NOTAMs
Click for the latest NOTAMs
NOTAMs are issued by the DoD/FAA and will open in a separate window not controlled by AirNav.

 

 
 

Would you like to see your business listed on this page?

 If your business provides an interesting product or service to pilots, flight crews, aircraft, or users of the Sky Meadow Airport, you should consider listing it here.  To start the listing process, click on the button below
 
Add a business
 

Other Pages about Sky Meadow Airport

Update a link
 
Copyright © AirNav, LLC. All rights reserved. Privacy Policy  Contact